createdAt,value
2023-04-16T00:01:34.326Z,71.45
2023-04-16T00:04:01.069Z,71.59
2023-04-16T00:06:28.525Z,71.27
2023-04-16T00:08:54.897Z,71.47
2023-04-16T00:11:22.184Z,71.54
2023-04-16T00:13:48.995Z,71.62
2023-04-16T00:16:15.545Z,71.52
2023-04-16T00:18:42.080Z,71.65
2023-04-16T00:21:08.472Z,71.55
2023-04-16T00:23:34.848Z,71.67
2023-04-16T00:26:01.245Z,71.53
2023-04-16T00:28:27.694Z,71.56
2023-04-16T00:30:54.825Z,71.51
2023-04-16T00:33:21.437Z,71.41
2023-04-16T00:35:48.334Z,71.52
2023-04-16T00:38:15.005Z,71.61
2023-04-16T00:40:41.454Z,71.60
2023-04-16T00:43:07.873Z,71.48
2023-04-16T00:45:34.699Z,71.66
2023-04-16T00:48:01.656Z,71.45
2023-04-16T00:50:28.262Z,71.53
2023-04-16T00:52:56.383Z,71.53
2023-04-16T00:55:22.868Z,71.49
2023-04-16T00:57:49.251Z,71.44
2023-04-16T01:00:16.107Z,71.47
2023-04-16T01:02:42.853Z,71.41
2023-04-16T01:05:09.481Z,71.60
2023-04-16T01:07:35.848Z,71.56
2023-04-16T01:10:03.311Z,71.55
2023-04-16T01:12:29.717Z,71.54
2023-04-16T01:14:56.453Z,71.48
2023-04-16T01:17:22.847Z,71.68
2023-04-16T01:19:49.264Z,71.72
2023-04-16T01:22:16.261Z,71.47
2023-04-16T01:24:42.599Z,71.51
2023-04-16T01:27:08.930Z,71.40
2023-04-16T01:29:35.427Z,71.45
2023-04-16T01:32:01.929Z,71.59
2023-04-16T01:34:28.580Z,71.47
2023-04-16T01:36:55.435Z,71.52
2023-04-16T01:39:22.327Z,71.49
2023-04-16T01:41:48.778Z,71.47
2023-04-16T01:44:15.449Z,71.46
2023-04-16T01:46:41.967Z,71.59
2023-04-16T01:49:08.983Z,71.50
2023-04-16T01:51:35.437Z,71.51
2023-04-16T01:54:01.913Z,71.22
2023-04-16T01:56:28.300Z,71.19
2023-04-16T01:58:54.769Z,71.16
2023-04-16T02:01:21.354Z,71.04
2023-04-16T02:03:48.390Z,71.29
2023-04-16T02:06:15.417Z,71.28
2023-04-16T02:08:41.828Z,71.19
2023-04-16T02:11:08.219Z,71.24
2023-04-16T02:13:34.794Z,71.36
2023-04-16T02:16:01.329Z,71.22
2023-04-16T02:18:28.011Z,71.37
2023-04-16T02:20:54.382Z,71.30
2023-04-16T02:23:20.857Z,71.21
2023-04-16T02:25:47.674Z,70.94
2023-04-16T02:28:15.993Z,71.01
2023-04-16T02:30:42.982Z,70.96
2023-04-16T02:33:11.558Z,70.99
2023-04-16T02:35:39.260Z,70.97
2023-04-16T02:38:06.145Z,71.11
2023-04-16T02:40:32.671Z,71.07
2023-04-16T02:42:59.171Z,71.15
2023-04-16T02:45:25.599Z,71.32
2023-04-16T02:47:52.170Z,71.36
2023-04-16T02:50:18.778Z,71.35
2023-04-16T02:52:45.339Z,71.27
2023-04-16T02:55:12.009Z,71.35
2023-04-16T02:57:38.519Z,71.23
2023-04-16T03:00:05.592Z,71.12
2023-04-16T03:02:32.115Z,71.17
2023-04-16T03:04:58.549Z,71.21
2023-04-16T03:07:25.138Z,71.20
2023-04-16T03:09:51.792Z,71.18
2023-04-16T03:12:18.216Z,71.16
2023-04-16T03:14:44.604Z,71.15
2023-04-16T03:17:11.429Z,71.17
2023-04-16T03:19:37.831Z,70.94
2023-04-16T03:22:04.432Z,71.23
2023-04-16T03:24:30.998Z,71.31
2023-04-16T03:26:58.380Z,71.27
2023-04-16T03:29:26.642Z,71.23
2023-04-16T03:31:53.085Z,71.36
2023-04-16T03:34:19.519Z,71.45
2023-04-16T03:36:45.922Z,71.27
2023-04-16T03:39:12.436Z,71.32
2023-04-16T03:41:38.858Z,71.25
2023-04-16T03:44:05.371Z,71.20
2023-04-16T03:46:31.775Z,71.31
2023-04-16T03:48:58.205Z,71.31
2023-04-16T03:51:24.831Z,71.27
2023-04-16T03:53:51.538Z,71.27
2023-04-16T03:56:17.956Z,71.10
2023-04-16T03:58:44.303Z,71.31
2023-04-16T04:01:10.649Z,71.36
2023-04-16T04:03:37.139Z,71.42
2023-04-16T04:06:08.335Z,71.42
2023-04-16T04:08:34.737Z,71.52
2023-04-16T04:11:01.108Z,71.50
2023-04-16T04:13:27.525Z,71.40
2023-04-16T04:15:53.945Z,71.39
2023-04-16T04:18:20.380Z,71.51
2023-04-16T04:20:46.747Z,71.34
2023-04-16T04:23:13.083Z,71.42
2023-04-16T04:25:39.426Z,71.39
2023-04-16T04:28:05.845Z,71.42
2023-04-16T04:30:32.206Z,71.39
2023-04-16T04:32:58.790Z,71.38
2023-04-16T04:35:25.536Z,71.46
2023-04-16T04:37:52.005Z,71.32
2023-04-16T04:40:18.572Z,71.23
2023-04-16T04:42:45.079Z,71.45
2023-04-16T04:45:11.881Z,71.57
2023-04-16T04:47:38.474Z,71.42
2023-04-16T04:50:05.564Z,71.53
2023-04-16T04:52:32.044Z,71.50
2023-04-16T04:54:58.548Z,71.46
2023-04-16T04:57:25.053Z,71.52
2023-04-16T04:59:51.630Z,71.63
2023-04-16T05:02:18.350Z,71.58
2023-04-16T05:04:44.902Z,71.73
2023-04-16T05:07:11.542Z,71.39
2023-04-16T05:09:38.023Z,71.67
2023-04-16T05:12:04.740Z,71.62
2023-04-16T05:14:33.894Z,71.56
2023-04-16T05:17:00.693Z,71.45
2023-04-16T05:19:27.326Z,71.50
2023-04-16T05:21:54.410Z,71.64
2023-04-16T05:24:21.020Z,71.53
2023-04-16T05:26:47.528Z,71.63
2023-04-16T05:29:13.900Z,71.59
2023-04-16T05:31:41.027Z,71.56
2023-04-16T05:34:07.429Z,71.65
2023-04-16T05:36:34.101Z,71.58
2023-04-16T05:39:00.600Z,71.80
2023-04-16T05:41:27.035Z,71.71
2023-04-16T05:43:53.726Z,71.80
2023-04-16T05:46:20.141Z,71.87
2023-04-16T05:48:46.786Z,71.72
2023-04-16T05:51:13.321Z,71.64
2023-04-16T05:53:39.930Z,71.71
2023-04-16T05:56:06.926Z,71.75
2023-04-16T05:58:33.797Z,71.72
2023-04-16T06:01:01.184Z,71.68
2023-04-16T06:03:27.999Z,71.60
2023-04-16T06:05:54.670Z,71.48
2023-04-16T06:08:21.278Z,71.72
2023-04-16T06:10:47.976Z,71.65
2023-04-16T06:13:14.840Z,71.70
2023-04-16T06:15:41.437Z,71.77
2023-04-16T06:18:08.000Z,71.85
2023-04-16T06:20:34.600Z,71.81
2023-04-16T06:23:01.142Z,71.77
2023-04-16T06:25:27.603Z,71.86
2023-04-16T06:27:54.158Z,71.75
2023-04-16T06:30:20.974Z,71.93
2023-04-16T06:32:48.081Z,71.83
2023-04-16T06:35:14.734Z,71.71
2023-04-16T06:37:41.568Z,71.76
2023-04-16T06:40:08.651Z,71.70
2023-04-16T06:42:35.368Z,71.81
2023-04-16T06:45:01.949Z,71.88
2023-04-16T06:47:28.472Z,71.71
2023-04-16T06:49:55.224Z,71.60
2023-04-16T06:52:21.891Z,71.74
2023-04-16T06:54:48.624Z,71.64
2023-04-16T06:57:16.105Z,71.73
2023-04-16T06:59:42.851Z,71.92
2023-04-16T07:02:10.837Z,71.93
2023-04-16T07:04:37.503Z,72.03
2023-04-16T07:07:04.074Z,72.05
2023-04-16T07:09:30.567Z,71.90
2023-04-16T07:11:57.083Z,71.96
2023-04-16T07:14:23.645Z,71.87
2023-04-16T07:16:50.312Z,71.82
2023-04-16T07:19:16.760Z,72.20
2023-04-16T07:21:43.844Z,71.81
2023-04-16T07:24:11.670Z,71.85
2023-04-16T07:26:38.310Z,71.71
2023-04-16T07:29:04.819Z,71.69
2023-04-16T07:31:31.504Z,71.87
2023-04-16T07:33:58.524Z,71.74
2023-04-16T07:36:25.156Z,71.75
2023-04-16T07:38:51.634Z,71.73
2023-04-16T07:41:18.232Z,71.56
2023-04-16T07:43:44.708Z,71.48
2023-04-16T07:46:11.369Z,71.46
2023-04-16T07:48:37.964Z,71.66
2023-04-16T07:51:04.565Z,71.50
2023-04-16T07:53:33.489Z,71.62
2023-04-16T07:56:00.007Z,71.56
2023-04-16T07:58:26.545Z,71.44
2023-04-16T08:00:53.378Z,71.44
2023-04-16T08:03:23.562Z,70.86
2023-04-16T08:05:50.378Z,71.29
2023-04-16T08:08:21.539Z,71.28
2023-04-16T08:10:48.196Z,71.42
2023-04-16T08:13:14.707Z,71.21
2023-04-16T08:15:41.555Z,71.07
2023-04-16T08:18:12.895Z,71.14
2023-04-16T08:20:39.696Z,71.13
2023-04-16T08:23:06.341Z,70.99
2023-04-16T08:25:33.070Z,70.27
2023-04-16T08:27:59.683Z,69.96
2023-04-16T08:30:31.007Z,69.69
2023-04-16T08:32:57.847Z,69.79
2023-04-16T08:35:27.320Z,69.95
2023-04-16T08:37:54.250Z,69.69
2023-04-16T08:40:28.987Z,69.26
2023-04-16T08:42:59.348Z,69.74
2023-04-16T08:45:30.723Z,69.68
2023-04-16T08:47:57.388Z,70.18
2023-04-16T08:50:26.159Z,70.25
2023-04-16T08:52:57.945Z,70.54
2023-04-16T08:55:41.389Z,69.41
2023-04-16T08:58:15.926Z,69.65
2023-04-16T09:00:45.573Z,70.25
2023-04-16T09:03:13.376Z,70.12
2023-04-16T09:05:40.136Z,70.46
2023-04-16T09:08:07.240Z,70.22
2023-04-16T09:10:34.350Z,70.39
2023-04-16T09:13:01.294Z,70.34
2023-04-16T09:15:27.908Z,70.17
2023-04-16T09:17:54.511Z,69.93
2023-04-16T09:20:21.216Z,69.57
2023-04-16T09:22:48.464Z,69.16
2023-04-16T09:25:15.355Z,69.14
2023-04-16T09:27:42.524Z,67.97
2023-04-16T09:30:22.915Z,65.81
2023-04-16T09:32:51.163Z,66.73
2023-04-16T09:35:21.574Z,66.31
2023-04-16T09:37:58.160Z,66.41
2023-04-16T09:40:27.113Z,67.55
2023-04-16T09:42:57.566Z,66.64
2023-04-16T09:45:24.465Z,67.73
2023-04-16T09:47:51.123Z,66.77
2023-04-16T09:50:20.189Z,65.96
2023-04-16T09:52:51.354Z,65.31
2023-04-16T09:55:23.998Z,65.30
2023-04-16T09:57:58.784Z,64.49
2023-04-16T10:00:25.550Z,65.15
2023-04-16T10:03:04.075Z,63.67
2023-04-16T10:05:30.695Z,64.75
2023-04-16T10:08:01.449Z,63.49
2023-04-16T10:10:28.583Z,64.18
2023-04-16T10:12:55.988Z,64.27
2023-04-16T10:15:22.763Z,64.85
2023-04-16T10:17:51.160Z,64.91
2023-04-16T10:20:18.476Z,64.83
2023-04-16T10:22:45.240Z,64.65
2023-04-16T10:25:12.126Z,64.81
2023-04-16T10:27:40.784Z,64.99
2023-04-16T10:30:08.891Z,64.71
2023-04-16T10:35:19.539Z,64.75
2023-04-16T10:37:47.324Z,65.15
2023-04-16T10:40:27.525Z,63.96
2023-04-16T10:42:57.136Z,63.60
2023-04-16T10:45:32.007Z,62.80
2023-04-16T10:47:58.988Z,64.22
2023-04-16T10:50:33.793Z,64.41
2023-04-16T10:53:22.655Z,63.11
2023-04-16T10:56:19.380Z,62.01
2023-04-16T10:58:45.801Z,63.95
2023-04-16T11:01:14.355Z,63.72
2023-04-16T11:03:42.760Z,63.69
2023-04-16T11:06:26.459Z,61.47
2023-04-16T11:08:55.027Z,62.71
2023-04-16T11:11:22.181Z,62.08
2023-04-16T11:13:48.614Z,62.29
2023-04-16T11:16:16.879Z,62.18
2023-04-16T11:18:51.320Z,61.70
2023-04-16T11:21:19.474Z,62.38
2023-04-16T11:23:49.949Z,61.89
2023-04-16T11:26:28.263Z,59.95
2023-04-16T11:28:56.522Z,61.40
2023-04-16T11:31:23.775Z,61.38
2023-04-16T11:33:50.651Z,61.37
2023-04-16T11:36:17.169Z,61.53
2023-04-16T11:38:43.533Z,61.62
2023-04-16T11:41:11.064Z,60.25
2023-04-16T11:43:37.628Z,59.65
2023-04-16T11:46:16.716Z,58.97
2023-04-16T11:48:54.183Z,60.26
2023-04-16T11:51:21.788Z,60.35
2023-04-16T11:53:53.288Z,58.76
2023-04-16T11:56:30.556Z,58.69
2023-04-16T11:59:10.678Z,58.48
2023-04-16T12:01:39.124Z,60.32
2023-04-16T12:04:06.429Z,60.64
2023-04-16T12:06:36.073Z,60.38
2023-04-16T12:09:23.813Z,58.63
2023-04-16T12:11:50.369Z,59.52
2023-04-16T12:14:16.834Z,59.43
2023-04-16T12:16:43.283Z,59.27
2023-04-16T12:19:12.502Z,58.97
2023-04-16T12:21:43.767Z,58.66
2023-04-16T12:24:15.249Z,60.15
2023-04-16T12:26:44.537Z,60.17
2023-04-16T12:29:21.798Z,58.99
2023-04-16T12:31:49.520Z,60.18
2023-04-16T12:34:16.916Z,59.88
2023-04-16T12:36:44.823Z,59.61
2023-04-16T12:39:12.725Z,60.01
2023-04-16T12:41:40.735Z,60.01
2023-04-16T12:44:12.411Z,59.76
2023-04-16T12:46:40.541Z,59.67
2023-04-16T12:49:08.629Z,59.25
2023-04-16T12:51:35.778Z,59.24
2023-04-16T12:54:04.152Z,58.75
2023-04-16T12:56:30.951Z,58.84
2023-04-16T12:58:57.751Z,59.35
2023-04-16T13:01:24.194Z,59.45
2023-04-16T13:03:51.000Z,59.62
2023-04-16T13:06:17.806Z,59.54
2023-04-16T13:08:45.036Z,59.31
2023-04-16T13:11:11.703Z,59.41
2023-04-16T13:13:38.108Z,59.51
2023-04-16T13:16:06.612Z,59.31
2023-04-16T13:18:33.087Z,58.86
2023-04-16T13:20:59.688Z,58.44
2023-04-16T13:23:26.116Z,58.50
2023-04-16T13:25:53.126Z,58.37
2023-04-16T13:28:19.518Z,59.19
2023-04-16T13:30:47.013Z,59.85
2023-04-16T13:33:13.364Z,59.75
2023-04-16T13:35:39.725Z,59.69
2023-04-16T13:38:06.064Z,59.74
2023-04-16T13:40:32.443Z,58.51
2023-04-16T13:42:58.875Z,58.01
2023-04-16T13:45:26.745Z,57.19
2023-04-16T13:47:54.043Z,57.12
2023-04-16T13:50:20.636Z,57.35
2023-04-16T13:52:47.081Z,57.07
2023-04-16T13:55:18.978Z,56.86
2023-04-16T13:57:47.345Z,57.21
2023-04-16T14:00:17.264Z,56.88
2023-04-16T14:02:45.805Z,57.87
2023-04-16T14:05:12.380Z,57.94
2023-04-16T14:07:38.774Z,58.70
2023-04-16T14:10:05.683Z,58.52
2023-04-16T14:12:32.414Z,58.53
2023-04-16T14:14:58.942Z,57.99
2023-04-16T14:17:25.472Z,58.12
2023-04-16T14:19:51.861Z,57.65
2023-04-16T14:22:18.277Z,57.63
2023-04-16T14:24:44.705Z,57.77
2023-04-16T14:27:11.170Z,57.69
2023-04-16T14:29:38.158Z,58.11
2023-04-16T14:32:05.247Z,58.42
2023-04-16T14:34:31.791Z,58.49
2023-04-16T14:36:58.234Z,58.50
2023-04-16T14:39:24.916Z,58.64
2023-04-16T14:41:51.324Z,58.91
2023-04-16T14:44:17.743Z,59.23
2023-04-16T14:46:44.553Z,60.02
2023-04-16T14:49:12.365Z,59.92
2023-04-16T14:51:39.060Z,59.34
2023-04-16T14:54:05.701Z,58.23
2023-04-16T14:56:32.337Z,57.84
2023-04-16T14:58:58.747Z,57.11
2023-04-16T15:01:25.199Z,57.01
2023-04-16T15:03:51.864Z,56.74
2023-04-16T15:06:19.054Z,56.29
2023-04-16T15:08:45.720Z,56.42
2023-04-16T15:11:12.109Z,56.29
2023-04-16T15:13:38.964Z,56.20
2023-04-16T15:16:05.474Z,56.17
2023-04-16T15:18:32.727Z,56.49
2023-04-16T15:20:59.228Z,56.20
2023-04-16T15:23:25.569Z,55.92
2023-04-16T15:25:51.916Z,55.96
2023-04-16T15:28:18.224Z,56.04
2023-04-16T15:30:44.899Z,55.37
2023-04-16T15:33:12.204Z,55.45
2023-04-16T15:35:41.083Z,55.30
2023-04-16T15:38:08.143Z,55.31
2023-04-16T15:40:36.274Z,55.30
2023-04-16T15:43:02.832Z,55.61
2023-04-16T15:45:29.241Z,55.80
2023-04-16T15:47:55.902Z,55.71
2023-04-16T15:50:22.352Z,55.73
2023-04-16T15:52:49.246Z,55.40
2023-04-16T15:55:17.195Z,55.05
2023-04-16T15:57:43.703Z,55.25
2023-04-16T16:00:16.126Z,55.05
2023-04-16T16:02:44.677Z,55.00
2023-04-16T16:05:14.188Z,54.92
2023-04-16T16:07:41.583Z,55.21
2023-04-16T16:10:09.651Z,55.04
2023-04-16T16:12:36.817Z,54.75
2023-04-16T16:15:04.609Z,54.79
2023-04-16T16:17:32.785Z,54.75
2023-04-16T16:19:59.576Z,54.92
2023-04-16T16:22:26.189Z,55.05
2023-04-16T16:24:52.854Z,55.18
2023-04-16T16:27:19.826Z,54.63
2023-04-16T16:29:46.494Z,54.74
2023-04-16T16:32:13.092Z,54.77
2023-04-16T16:34:39.606Z,54.61
2023-04-16T16:37:06.418Z,54.93
2023-04-16T16:39:33.282Z,54.82
2023-04-16T16:42:00.048Z,54.98
2023-04-16T16:44:27.149Z,55.24
2023-04-16T16:46:54.071Z,54.96
2023-04-16T16:49:20.684Z,55.52
2023-04-16T16:51:48.191Z,55.76
2023-04-16T16:54:15.052Z,55.87
2023-04-16T16:56:41.584Z,56.08
2023-04-16T16:59:09.061Z,56.10
2023-04-16T17:01:35.875Z,56.44
2023-04-16T17:04:02.911Z,56.28
2023-04-16T17:06:29.760Z,56.44
2023-04-16T17:08:56.282Z,56.35
2023-04-16T17:11:22.846Z,56.47
2023-04-16T17:13:49.420Z,56.46
2023-04-16T17:16:17.673Z,56.53
2023-04-16T17:18:44.192Z,56.72
2023-04-16T17:21:10.803Z,56.77
2023-04-16T17:23:38.793Z,56.96
2023-04-16T17:26:07.195Z,57.14
2023-04-16T17:28:33.843Z,57.15
2023-04-16T17:31:01.563Z,57.12
2023-04-16T17:33:28.208Z,57.07
2023-04-16T17:35:54.794Z,57.01
2023-04-16T17:38:21.368Z,57.11
2023-04-16T17:40:47.908Z,57.26
2023-04-16T17:43:14.302Z,57.42
2023-04-16T17:45:40.988Z,57.54
2023-04-16T17:48:07.514Z,57.67
2023-04-16T17:50:34.085Z,57.90
2023-04-16T17:53:03.581Z,58.07
2023-04-16T17:55:31.108Z,58.23
2023-04-16T17:57:57.703Z,58.49
2023-04-16T18:00:24.152Z,58.55
2023-04-16T18:02:52.371Z,58.87
2023-04-16T18:05:19.792Z,59.03
2023-04-16T18:07:47.044Z,59.28
2023-04-16T18:10:13.566Z,59.50
2023-04-16T18:12:40.194Z,59.66
2023-04-16T18:15:07.345Z,59.91
2023-04-16T18:17:33.929Z,59.92
2023-04-16T18:20:00.384Z,59.97
2023-04-16T18:22:28.554Z,60.16
2023-04-16T18:24:55.451Z,60.30
2023-04-16T18:27:22.085Z,60.46
2023-04-16T18:29:49.471Z,60.56
2023-04-16T18:32:18.310Z,60.69
2023-04-16T18:35:01.921Z,60.73
2023-04-16T18:37:32.181Z,60.89
2023-04-16T18:39:59.448Z,60.73
2023-04-16T18:42:28.090Z,61.06
2023-04-16T18:44:55.209Z,61.23
2023-04-16T18:47:21.764Z,61.18
2023-04-16T18:49:48.322Z,61.33
2023-04-16T18:52:14.888Z,61.22
2023-04-16T18:54:41.688Z,61.27
2023-04-16T18:57:08.210Z,61.52
2023-04-16T18:59:34.751Z,61.41
2023-04-16T19:02:01.570Z,61.59
2023-04-16T19:04:28.236Z,61.57
2023-04-16T19:06:54.735Z,61.71
2023-04-16T19:09:21.312Z,61.85
2023-04-16T19:11:50.379Z,61.82
2023-04-16T19:14:16.968Z,62.08
2023-04-16T19:16:47.238Z,62.18
2023-04-16T19:19:14.343Z,61.95
2023-04-16T19:21:41.126Z,62.25
2023-04-16T19:24:14.153Z,62.05
2023-04-16T19:26:40.543Z,62.06
2023-04-16T19:29:07.276Z,62.20
2023-04-16T19:31:34.800Z,62.16
2023-04-16T19:34:01.375Z,62.24
2023-04-16T19:36:27.983Z,62.27
2023-04-16T19:38:54.483Z,62.25
2023-04-16T19:41:21.241Z,62.46
2023-04-16T19:43:47.692Z,62.70
2023-04-16T19:46:15.496Z,62.64
2023-04-16T19:48:42.199Z,62.53
2023-04-16T19:51:08.770Z,62.65
2023-04-16T19:53:35.908Z,62.81
2023-04-16T19:56:02.430Z,62.85
2023-04-16T19:58:29.034Z,62.85
2023-04-16T20:00:56.305Z,62.90
2023-04-16T20:03:22.874Z,62.93
2023-04-16T20:05:52.461Z,63.01
2023-04-16T20:08:19.079Z,63.17
2023-04-16T20:10:45.815Z,63.26
2023-04-16T20:13:13.695Z,63.30
2023-04-16T20:15:40.408Z,63.44
2023-04-16T20:18:08.711Z,63.44
2023-04-16T20:20:36.738Z,63.55
2023-04-16T20:23:03.388Z,63.54
2023-04-16T20:25:30.073Z,63.76
2023-04-16T20:27:56.568Z,63.87
2023-04-16T20:30:28.746Z,63.78
2023-04-16T20:32:56.527Z,63.78
2023-04-16T20:35:23.242Z,63.84
2023-04-16T20:37:49.730Z,64.09
2023-04-16T20:40:16.420Z,64.16
2023-04-16T20:42:46.263Z,64.06
2023-04-16T20:45:13.067Z,64.23
2023-04-16T20:47:39.662Z,64.46
2023-04-16T20:50:06.786Z,64.29
2023-04-16T20:52:33.270Z,64.48
2023-04-16T20:54:59.758Z,64.67
2023-04-16T20:57:28.098Z,64.59
2023-04-16T20:59:54.737Z,64.63
2023-04-16T21:02:21.490Z,64.68
2023-04-16T21:04:48.256Z,64.70
2023-04-16T21:07:15.509Z,64.46
2023-04-16T21:09:42.094Z,64.62
2023-04-16T21:12:08.645Z,64.60
2023-04-16T21:14:35.229Z,64.53
2023-04-16T21:17:01.782Z,64.74
2023-04-16T21:19:28.370Z,64.82
2023-04-16T21:21:54.835Z,64.58
2023-04-16T21:24:21.329Z,64.74
2023-04-16T21:26:47.842Z,64.71
2023-04-16T21:29:14.479Z,64.71
2023-04-16T21:31:41.229Z,64.71
2023-04-16T21:34:07.854Z,64.58
2023-04-16T21:36:35.081Z,64.61
2023-04-16T21:39:01.869Z,64.68
2023-04-16T21:41:38.485Z,64.71
2023-04-16T21:44:05.236Z,64.62
2023-04-16T21:46:31.749Z,64.63
2023-04-16T21:48:58.490Z,64.62
2023-04-16T21:51:29.775Z,64.73
2023-04-16T21:53:56.706Z,64.56
2023-04-16T21:56:23.945Z,64.53
2023-04-16T21:58:50.673Z,64.67
2023-04-16T22:01:17.404Z,64.82
2023-04-16T22:03:44.101Z,64.65
2023-04-16T22:06:11.591Z,64.89
2023-04-16T22:08:38.065Z,64.79
2023-04-16T22:11:04.618Z,64.88
2023-04-16T22:13:36.527Z,64.81
2023-04-16T22:16:03.501Z,64.93
2023-04-16T22:18:33.109Z,65.08
2023-04-16T22:21:00.162Z,65.06
2023-04-16T22:23:26.858Z,65.24
2023-04-16T22:25:55.473Z,65.13
2023-04-16T22:28:22.530Z,65.24
2023-04-16T22:30:49.040Z,65.29
2023-04-16T22:33:18.045Z,65.20
2023-04-16T22:35:44.560Z,65.49
2023-04-16T22:38:11.009Z,65.04
2023-04-16T22:40:37.474Z,65.12
2023-04-16T22:43:04.586Z,65.07
2023-04-16T22:45:31.040Z,65.15
2023-04-16T22:47:57.477Z,65.19
2023-04-16T22:50:23.977Z,65.39
2023-04-16T22:52:50.447Z,65.64
2023-04-16T22:55:16.904Z,65.67
2023-04-16T22:57:43.336Z,65.70
2023-04-16T23:00:15.707Z,65.70
2023-04-16T23:02:42.376Z,65.69
2023-04-16T23:05:09.041Z,65.60
2023-04-16T23:07:35.403Z,65.73
2023-04-16T23:10:01.937Z,66.01
2023-04-16T23:12:28.316Z,65.74
2023-04-16T23:14:54.712Z,65.73
2023-04-16T23:17:21.089Z,65.65
2023-04-16T23:19:47.390Z,65.39
2023-04-16T23:22:13.677Z,65.59
2023-04-16T23:24:40.199Z,65.24
2023-04-16T23:27:06.534Z,65.26
2023-04-16T23:29:32.857Z,65.19
2023-04-16T23:31:59.191Z,65.30
2023-04-16T23:34:25.869Z,65.38
2023-04-16T23:36:52.213Z,65.09
2023-04-16T23:39:18.547Z,65.11
2023-04-16T23:41:45.006Z,65.06
2023-04-16T23:44:11.361Z,65.18
2023-04-16T23:46:39.182Z,65.04
2023-04-16T23:49:05.760Z,65.06
2023-04-16T23:51:32.094Z,65.27
2023-04-16T23:53:58.402Z,65.08
2023-04-16T23:56:24.782Z,65.13
2023-04-16T23:58:51.080Z,65.27
